createdAt,value
2022-12-08T00:02:05.953Z,3.47
2022-12-08T00:05:27.896Z,2.90
2022-12-08T00:08:48.147Z,3.03
2022-12-08T00:11:51.555Z,3.40
2022-12-08T00:14:54.956Z,3.70
2022-12-08T00:17:58.968Z,3.67
2022-12-08T00:21:02.202Z,3.60
2022-12-08T00:24:04.915Z,3.95
2022-12-08T00:27:07.967Z,3.58
2022-12-08T00:30:11.036Z,3.78
2022-12-08T00:33:15.003Z,3.70
2022-12-08T00:36:17.652Z,4.35
2022-12-08T00:39:20.577Z,3.92
2022-12-08T00:42:23.181Z,3.92
2022-12-08T00:45:26.001Z,3.65
2022-12-08T00:48:29.998Z,4.13
2022-12-08T00:51:32.933Z,3.90
2022-12-08T00:54:35.508Z,4.00
2022-12-08T00:57:38.093Z,3.90
2022-12-08T01:00:41.459Z,3.80
2022-12-08T01:03:45.669Z,3.38
2022-12-08T01:06:48.496Z,3.80
2022-12-08T01:09:51.132Z,3.45
2022-12-08T01:12:53.735Z,3.28
2022-12-08T01:15:56.392Z,3.22
2022-12-08T01:19:01.059Z,3.60
2022-12-08T01:22:03.608Z,3.33
2022-12-08T01:25:06.601Z,3.55
2022-12-08T01:28:09.207Z,3.83
2022-12-08T01:31:13.294Z,3.38
2022-12-08T01:34:17.299Z,3.55
2022-12-08T01:37:19.937Z,3.40
2022-12-08T01:40:22.523Z,3.15
2022-12-08T01:43:25.074Z,3.70
2022-12-08T01:46:28.723Z,3.47
2022-12-08T01:49:34.009Z,3.70
2022-12-08T01:52:38.851Z,3.60
2022-12-08T01:55:43.364Z,3.55
2022-12-08T01:58:47.549Z,3.88
2022-12-08T02:01:50.336Z,4.10
2022-12-08T02:04:54.285Z,3.92
2022-12-08T02:07:58.066Z,4.18
2022-12-08T02:11:00.657Z,3.70
2022-12-08T02:14:05.124Z,2.92
2022-12-08T02:17:13.407Z,3.72
2022-12-08T02:20:31.915Z,3.20
2022-12-08T02:23:37.857Z,3.40
2022-12-08T02:27:07.351Z,3.53
2022-12-08T02:30:15.920Z,3.40
2022-12-08T02:33:34.165Z,3.75
2022-12-08T02:36:40.226Z,3.17
2022-12-08T02:39:45.786Z,3.13
2022-12-08T02:42:49.780Z,3.75
2022-12-08T02:45:54.035Z,3.28
2022-12-08T02:48:56.896Z,3.10
2022-12-08T02:52:23.678Z,2.67
2022-12-08T02:55:29.036Z,2.78
2022-12-08T02:58:41.224Z,2.72
2022-12-08T03:01:50.261Z,3.10
2022-12-08T03:04:56.548Z,2.83
2022-12-08T03:08:03.449Z,3.17
2022-12-08T03:11:10.674Z,2.95
2022-12-08T03:14:15.474Z,3.45
2022-12-08T03:17:19.639Z,2.88
2022-12-08T03:20:22.784Z,2.50
2022-12-08T03:23:25.650Z,2.63
2022-12-08T03:26:31.555Z,2.50
2022-12-08T03:29:34.652Z,3.17
2022-12-08T03:32:39.761Z,2.72
2022-12-08T03:35:43.253Z,2.35
2022-12-08T03:38:46.833Z,2.72
2022-12-08T03:41:50.760Z,2.58
2022-12-08T03:44:53.451Z,3.22
2022-12-08T03:47:56.628Z,2.67
2022-12-08T03:50:59.278Z,3.08
2022-12-08T03:54:01.903Z,3.25
2022-12-08T03:57:06.101Z,3.08
2022-12-08T04:00:10.174Z,2.65
2022-12-08T04:03:12.844Z,2.97
2022-12-08T04:06:15.607Z,3.13
2022-12-08T04:09:18.249Z,3.08
2022-12-08T04:12:22.339Z,2.80
2022-12-08T04:15:24.937Z,2.90
2022-12-08T04:18:27.631Z,2.25
2022-12-08T04:21:30.267Z,2.38
2022-12-08T04:24:32.859Z,2.90
2022-12-08T04:27:37.003Z,2.63
2022-12-08T04:30:40.070Z,2.47
2022-12-08T04:33:42.901Z,2.83
2022-12-08T04:36:45.547Z,2.30
2022-12-08T04:39:48.226Z,2.78
2022-12-08T04:42:52.251Z,2.08
2022-12-08T04:45:54.914Z,2.15
2022-12-08T04:48:57.491Z,2.80
2022-12-08T04:51:59.993Z,2.50
2022-12-08T04:55:02.868Z,2.45
2022-12-08T04:58:06.992Z,2.65
2022-12-08T05:01:09.573Z,2.55
2022-12-08T05:04:12.202Z,2.15
2022-12-08T05:07:15.059Z,2.22
2022-12-08T05:10:17.789Z,2.80
2022-12-08T05:13:21.696Z,1.98
2022-12-08T05:16:24.330Z,1.80
2022-12-08T05:19:26.977Z,2.17
2022-12-08T05:22:29.547Z,1.80
2022-12-08T05:25:32.116Z,1.95
2022-12-08T05:28:44.038Z,1.95
2022-12-08T05:31:46.981Z,1.88
2022-12-08T05:34:49.584Z,2.05
2022-12-08T05:37:53.816Z,1.48
2022-12-08T05:40:56.369Z,2.10
2022-12-08T05:44:00.327Z,1.80
2022-12-08T05:47:02.968Z,1.77
2022-12-08T05:50:06.738Z,1.77
2022-12-08T05:53:09.557Z,1.75
2022-12-08T05:56:12.429Z,2.20
2022-12-08T05:59:16.618Z,1.88
2022-12-08T06:02:19.271Z,1.70
2022-12-08T06:05:22.002Z,1.98
2022-12-08T06:08:24.735Z,2.22
2022-12-08T06:11:28.734Z,1.80
2022-12-08T06:14:32.610Z,1.80
2022-12-08T06:17:35.432Z,1.85
2022-12-08T06:20:37.931Z,1.55
2022-12-08T06:23:40.458Z,1.90
2022-12-08T06:26:43.283Z,2.50
2022-12-08T06:29:47.204Z,2.13
2022-12-08T06:32:49.749Z,1.90
2022-12-08T06:35:52.391Z,1.77
2022-12-08T06:38:55.584Z,1.90
2022-12-08T06:42:15.644Z,2.50
2022-12-08T06:45:19.803Z,1.90
2022-12-08T06:48:22.447Z,2.03
2022-12-08T06:51:25.366Z,2.55
2022-12-08T06:54:28.026Z,1.92
2022-12-08T06:57:30.551Z,2.00
2022-12-08T07:00:34.478Z,1.95
2022-12-08T07:03:37.859Z,1.80
2022-12-08T07:06:40.645Z,1.95
2022-12-08T07:09:43.250Z,2.13
2022-12-08T07:12:46.423Z,2.08
2022-12-08T07:15:50.366Z,1.80
2022-12-08T07:18:52.882Z,2.22
2022-12-08T07:21:55.631Z,2.10
2022-12-08T07:24:58.126Z,1.73
2022-12-08T07:28:00.764Z,1.83
2022-12-08T07:31:05.166Z,1.85
2022-12-08T07:34:07.839Z,2.25
2022-12-08T07:37:10.411Z,2.40
2022-12-08T07:40:13.630Z,2.20
2022-12-08T07:43:19.855Z,2.22
2022-12-08T07:46:25.478Z,2.15
2022-12-08T07:49:29.030Z,2.08
2022-12-08T07:52:31.523Z,2.17
2022-12-08T07:55:35.083Z,2.13
2022-12-08T07:58:37.966Z,2.05
2022-12-08T08:01:45.413Z,2.15
2022-12-08T08:04:51.364Z,2.30
2022-12-08T08:07:54.359Z,2.28
2022-12-08T08:10:59.077Z,2.15
2022-12-08T08:14:06.621Z,1.88
2022-12-08T08:17:11.178Z,2.30
2022-12-08T08:20:14.820Z,2.28
2022-12-08T08:23:17.580Z,2.55
2022-12-08T08:26:20.314Z,1.95
2022-12-08T08:29:22.948Z,1.98
2022-12-08T08:32:26.952Z,2.10
2022-12-08T08:35:29.501Z,1.88
2022-12-08T08:38:32.042Z,1.98
2022-12-08T08:41:35.338Z,2.10
2022-12-08T08:44:38.841Z,2.08
2022-12-08T08:47:42.843Z,2.17
2022-12-08T08:50:45.483Z,2.08
2022-12-08T08:53:48.474Z,2.20
2022-12-08T08:56:51.122Z,2.25
2022-12-08T08:59:53.718Z,1.90
2022-12-08T09:02:57.696Z,2.25
2022-12-08T09:06:00.768Z,1.88
2022-12-08T09:09:03.496Z,2.08
2022-12-08T09:12:06.534Z,2.13
2022-12-08T09:15:09.432Z,1.98
2022-12-08T09:18:13.346Z,2.20
2022-12-08T09:21:22.246Z,2.08
2022-12-08T09:24:24.822Z,1.63
2022-12-08T09:27:27.535Z,1.65
2022-12-08T09:30:30.066Z,2.00
2022-12-08T09:33:34.766Z,2.17
2022-12-08T09:36:37.385Z,2.30
2022-12-08T09:39:41.265Z,2.20
2022-12-08T09:42:45.412Z,2.13
2022-12-08T09:45:48.802Z,2.50
2022-12-08T09:48:55.852Z,2.35
2022-12-08T09:51:58.651Z,3.10
2022-12-08T09:55:03.539Z,3.03
2022-12-08T09:58:08.535Z,2.35
2022-12-08T10:01:11.998Z,2.85
2022-12-08T10:04:21.191Z,3.28
2022-12-08T10:07:27.160Z,4.95
2022-12-08T10:10:33.302Z,5.93
2022-12-08T10:13:38.718Z,3.40
2022-12-08T10:16:42.836Z,3.40
2022-12-08T10:19:47.906Z,3.00
2022-12-08T10:22:51.895Z,3.08
2022-12-08T10:25:58.881Z,2.70
2022-12-08T10:29:02.948Z,2.47
2022-12-08T10:32:10.847Z,2.35
2022-12-08T10:35:15.884Z,2.35
2022-12-08T10:38:20.527Z,2.50
2022-12-08T10:41:23.997Z,2.30
2022-12-08T10:44:26.762Z,2.28
2022-12-08T10:47:30.288Z,2.05
2022-12-08T10:50:35.313Z,1.70
2022-12-08T10:53:45.815Z,1.95
2022-12-08T10:56:54.455Z,1.58
2022-12-08T10:59:57.284Z,1.85
2022-12-08T11:03:01.145Z,1.52
2022-12-08T11:06:13.153Z,1.83
2022-12-08T11:09:36.105Z,1.40
2022-12-08T11:12:38.713Z,1.00
2022-12-08T11:15:41.492Z,1.02
2022-12-08T11:18:46.927Z,1.23
2022-12-08T11:21:51.008Z,1.38
2022-12-08T11:25:01.994Z,1.45
2022-12-08T11:28:06.501Z,1.10
2022-12-08T11:31:15.879Z,1.33
2022-12-08T11:34:20.912Z,1.45
2022-12-08T11:37:32.926Z,1.38
2022-12-08T11:40:39.221Z,1.80
2022-12-08T11:43:47.014Z,1.63
2022-12-08T11:46:52.493Z,1.50
2022-12-08T11:49:56.966Z,2.40
2022-12-08T11:53:02.366Z,2.30
2022-12-08T11:56:07.855Z,2.60
2022-12-08T11:59:16.482Z,2.38
2022-12-08T12:02:19.968Z,2.45
2022-12-08T12:05:33.681Z,2.53
2022-12-08T12:08:55.794Z,2.60
2022-12-08T12:12:19.831Z,2.67
2022-12-08T12:15:32.635Z,3.17
2022-12-08T12:18:38.604Z,2.67
2022-12-08T12:21:43.351Z,3.17
2022-12-08T12:24:48.809Z,4.57
2022-12-08T12:27:57.206Z,3.38
2022-12-08T12:31:05.738Z,3.30
2022-12-08T12:34:09.471Z,3.22
2022-12-08T12:37:13.958Z,4.05
2022-12-08T12:40:22.257Z,4.47
2022-12-08T12:43:32.189Z,4.05
2022-12-08T12:46:55.669Z,4.20
2022-12-08T12:50:21.541Z,3.75
2022-12-08T12:53:43.109Z,3.70
2022-12-08T12:56:55.337Z,3.85
2022-12-08T13:00:10.879Z,3.95
2022-12-08T13:03:15.393Z,2.88
2022-12-08T13:06:24.584Z,2.80
2022-12-08T13:09:33.712Z,2.60
2022-12-08T13:12:38.135Z,2.80
2022-12-08T13:15:52.994Z,2.72
2022-12-08T13:18:58.327Z,2.92
2022-12-08T13:22:04.561Z,2.60
2022-12-08T13:25:25.924Z,2.25
2022-12-08T13:28:30.860Z,2.67
2022-12-08T13:31:41.668Z,2.67
2022-12-08T13:34:50.864Z,2.90
2022-12-08T13:37:55.455Z,2.60
2022-12-08T13:40:58.650Z,2.85
2022-12-08T13:47:34.223Z,2.92
2022-12-08T13:52:25.874Z,3.45
2022-12-08T13:55:03.642Z,2.67
2022-12-08T13:57:34.466Z,2.40
2022-12-08T14:00:39.158Z,2.75
2022-12-08T14:04:11.709Z,3.47
2022-12-08T14:07:10.454Z,3.15
2022-12-08T14:10:17.237Z,3.03
2022-12-08T14:13:19.933Z,2.90
2022-12-08T14:16:29.374Z,2.75
2022-12-08T14:19:34.207Z,3.53
2022-12-08T14:22:37.934Z,3.00
2022-12-08T14:25:47.970Z,3.15
2022-12-08T14:28:50.676Z,3.33
2022-12-08T14:31:55.357Z,2.38
2022-12-08T14:34:59.671Z,2.65
2022-12-08T14:38:03.165Z,2.53
2022-12-08T14:41:07.275Z,2.83
2022-12-08T14:44:20.156Z,2.95
2022-12-08T14:47:24.278Z,3.00
2022-12-08T14:50:44.420Z,2.90
2022-12-08T14:53:48.831Z,2.78
2022-12-08T14:56:52.746Z,2.63
2022-12-08T14:59:55.785Z,2.95
2022-12-08T15:02:59.968Z,2.80
2022-12-08T15:06:05.009Z,2.53
2022-12-08T15:09:16.860Z,2.72
2022-12-08T15:12:26.388Z,3.05
2022-12-08T15:15:30.753Z,3.30
2022-12-08T15:18:38.081Z,3.10
2022-12-08T15:21:41.151Z,2.95
2022-12-08T15:24:43.744Z,5.38
2022-12-08T15:27:50.525Z,8.20
2022-12-08T15:30:53.793Z,6.35
2022-12-08T15:33:57.730Z,4.90
2022-12-08T15:37:00.241Z,4.07
2022-12-08T15:40:05.888Z,4.57
2022-12-08T15:43:10.875Z,4.90
2022-12-08T15:46:14.268Z,5.40
2022-12-08T15:49:19.800Z,5.43
2022-12-08T15:52:23.752Z,4.20
2022-12-08T15:55:26.412Z,4.00
2022-12-08T15:58:52.908Z,4.25
2022-12-08T16:01:51.916Z,3.95
2022-12-08T16:12:09.011Z,4.13
2022-12-08T16:18:36.980Z,3.85
2022-12-08T16:22:23.800Z,4.75
2022-12-08T16:25:17.641Z,4.55
2022-12-08T16:28:52.882Z,4.82
2022-12-08T16:31:44.178Z,5.28
2022-12-08T16:34:46.780Z,7.00
2022-12-08T16:37:50.850Z,8.27
2022-12-08T16:41:10.940Z,9.07
2022-12-08T16:44:13.464Z,6.93
2022-12-08T16:47:16.204Z,8.57
2022-12-08T16:50:19.770Z,7.32
2022-12-08T16:53:37.257Z,8.00
2022-12-08T16:56:39.831Z,7.88
2022-12-08T16:59:42.699Z,7.28
2022-12-08T17:02:46.364Z,7.53
2022-12-08T17:05:49.317Z,6.88
2022-12-08T17:09:07.113Z,6.55
2022-12-08T17:12:10.528Z,5.80
2022-12-08T17:15:16.351Z,8.13
2022-12-08T17:18:19.347Z,6.68
2022-12-08T17:21:22.135Z,5.93
2022-12-08T17:24:29.409Z,6.72
2022-12-08T17:27:32.482Z,7.63
2022-12-08T17:30:35.338Z,6.78
2022-12-08T17:33:38.095Z,7.15
2022-12-08T17:36:40.875Z,6.82
2022-12-08T17:39:44.977Z,7.68
2022-12-08T17:42:47.606Z,7.95
2022-12-08T17:45:50.473Z,6.75
2022-12-08T17:48:54.169Z,8.38
2022-12-08T17:51:57.927Z,7.95
2022-12-08T17:55:02.097Z,7.65
2022-12-08T17:58:05.163Z,6.70
2022-12-08T18:01:09.557Z,7.88
2022-12-08T18:04:17.770Z,8.85
2022-12-08T18:07:20.688Z,8.80
2022-12-08T18:10:25.104Z,8.45
2022-12-08T18:13:30.902Z,8.32
2022-12-08T18:16:33.468Z,9.25
2022-12-08T18:19:36.071Z,9.10
2022-12-08T18:22:38.886Z,9.02
2022-12-08T18:25:43.073Z,8.25
2022-12-08T18:28:45.642Z,7.85
2022-12-08T18:31:48.547Z,9.10
2022-12-08T18:34:51.230Z,9.07
2022-12-08T18:37:53.981Z,7.70
2022-12-08T18:41:04.444Z,8.13
2022-12-08T18:44:08.367Z,8.35
2022-12-08T18:47:10.937Z,7.45
2022-12-08T18:50:14.154Z,7.05
2022-12-08T18:53:16.784Z,6.90
2022-12-08T18:56:23.438Z,6.60
2022-12-08T18:59:26.062Z,7.18
2022-12-08T19:02:29.282Z,7.00
2022-12-08T19:05:31.925Z,7.07
2022-12-08T19:08:34.944Z,6.88
2022-12-08T19:11:39.665Z,7.40
2022-12-08T19:14:42.573Z,7.55
2022-12-08T19:17:45.263Z,8.40
2022-12-08T19:20:47.989Z,7.97
2022-12-08T19:23:51.612Z,8.23
2022-12-08T19:26:55.589Z,7.40
2022-12-08T19:29:58.360Z,7.70
2022-12-08T19:33:01.085Z,8.48
2022-12-08T19:36:05.611Z,6.95
2022-12-08T19:39:40.159Z,6.60
2022-12-08T19:43:01.801Z,6.47
2022-12-08T19:46:04.636Z,7.00
2022-12-08T19:49:07.411Z,6.53
2022-12-08T19:52:10.274Z,8.52
2022-12-08T19:55:13.682Z,7.32
2022-12-08T19:58:17.748Z,6.70
2022-12-08T20:01:20.516Z,7.82
2022-12-08T20:04:23.711Z,6.75
2022-12-08T20:07:26.363Z,7.03
2022-12-08T20:10:30.171Z,7.35
2022-12-08T20:13:45.505Z,7.00
2022-12-08T20:16:48.484Z,7.20
2022-12-08T20:19:51.291Z,6.65
2022-12-08T20:22:54.087Z,7.18
2022-12-08T20:25:56.708Z,7.78
2022-12-08T20:29:00.859Z,6.75
2022-12-08T20:32:03.821Z,6.65
2022-12-08T20:35:07.180Z,7.43
2022-12-08T20:38:10.181Z,6.55
2022-12-08T20:41:12.946Z,6.30
2022-12-08T20:44:17.858Z,6.88
2022-12-08T20:47:20.750Z,6.72
2022-12-08T20:50:23.608Z,7.53
2022-12-08T20:53:26.231Z,6.72
2022-12-08T20:56:29.097Z,6.90
2022-12-08T20:59:33.214Z,7.50
2022-12-08T21:02:36.246Z,7.38
2022-12-08T21:05:40.406Z,7.40
2022-12-08T21:08:44.345Z,8.15
2022-12-08T21:11:47.216Z,6.95
2022-12-08T21:14:51.504Z,7.28
2022-12-08T21:17:54.855Z,7.45
2022-12-08T21:21:01.950Z,7.68
2022-12-08T21:24:05.180Z,7.68
2022-12-08T21:27:08.121Z,8.15
2022-12-08T21:30:13.038Z,9.10
2022-12-08T21:33:15.729Z,9.23
2022-12-08T21:36:20.488Z,7.72
2022-12-08T21:39:23.214Z,7.20
2022-12-08T21:42:43.462Z,7.75
2022-12-08T21:45:47.648Z,7.80
2022-12-08T21:48:50.320Z,8.38
2022-12-08T21:51:53.438Z,7.70
2022-12-08T21:54:56.469Z,7.60
2022-12-08T21:58:00.749Z,8.27
2022-12-08T22:01:13.262Z,6.63
2022-12-08T22:04:21.392Z,7.47
2022-12-08T22:07:24.744Z,7.72
2022-12-08T22:10:27.398Z,6.72
2022-12-08T22:13:30.087Z,7.13
2022-12-08T22:16:34.446Z,7.22
2022-12-08T22:19:37.198Z,7.20
2022-12-08T22:22:40.080Z,8.35
2022-12-08T22:25:43.025Z,7.47
2022-12-08T22:28:45.731Z,7.32
2022-12-08T22:31:50.026Z,7.63
2022-12-08T22:34:52.971Z,7.07
2022-12-08T22:37:55.782Z,7.38
2022-12-08T22:40:58.637Z,7.18
2022-12-08T22:44:02.449Z,6.88
2022-12-08T22:47:06.929Z,5.88
2022-12-08T22:50:10.381Z,6.95
2022-12-08T22:53:13.992Z,5.95
2022-12-08T22:56:17.684Z,5.82
2022-12-08T22:59:20.558Z,6.10
2022-12-08T23:02:24.870Z,6.40
2022-12-08T23:05:27.736Z,6.22
2022-12-08T23:08:30.711Z,6.50
2022-12-08T23:11:33.305Z,8.10
2022-12-08T23:14:36.180Z,6.93
2022-12-08T23:17:40.447Z,6.55
2022-12-08T23:20:43.387Z,6.93
2022-12-08T23:23:46.170Z,6.72
2022-12-08T23:26:49.235Z,7.40
2022-12-08T23:29:52.258Z,6.75
2022-12-08T23:32:57.340Z,6.43
2022-12-08T23:36:00.007Z,7.32
2022-12-08T23:39:02.707Z,6.00
2022-12-08T23:42:05.767Z,6.75
2022-12-08T23:45:09.607Z,6.68
2022-12-08T23:48:13.668Z,6.53
2022-12-08T23:51:16.820Z,7.38
2022-12-08T23:54:19.584Z,6.70
2022-12-08T23:57:22.535Z,6.93
